Time;durP1;ratioP1;P1;durP2;ratioP2;P2;SDS_P1;SDS_P2;PMS_P1;PMS_P2;Temp;Humidity;BMP_temperature;BMP_pressure;BME280_temperature;BME280_humidity;BME280_pressure;Samples;Min_cycle;Max_cycle;Signal;HPM_P1;HPM_P2
2023/07/27 00:00:17;;;;;;;5.22;2.30;;;;;;;12.61;95.95;97166.59;5061359;28;20413;-57
2023/07/27 00:02:44;;;;;;;4.80;2.00;;;;;;;12.62;95.62;97156.56;5063300;28;20040;-56
2023/07/27 00:05:12;;;;;;;4.30;2.28;;;;;;;12.65;95.35;97164.16;5062554;28;20094;-55
2023/07/27 00:07:39;;;;;;;4.65;2.40;;;;;;;12.67;95.24;97162.00;5063046;28;20053;-57
2023/07/27 00:10:06;;;;;;;6.95;2.20;;;;;;;12.63;95.52;97163.63;5062725;28;20549;-56
2023/07/27 00:12:33;;;;;;;4.18;1.90;;;;;;;12.63;95.52;97160.09;5062738;28;20550;-57
2023/07/27 00:14:59;;;;;;;3.83;1.88;;;;;;;12.54;96.48;97154.38;5062821;28;20037;-57
2023/07/27 00:17:26;;;;;;;3.78;2.20;;;;;;;12.57;96.40;97151.13;5063281;28;20051;-54
2023/07/27 00:19:52;;;;;;;3.83;2.05;;;;;;;12.59;95.76;97144.34;5061387;28;20036;-56
2023/07/27 00:22:19;;;;;;;3.78;1.85;;;;;;;12.60;95.73;97147.84;5062911;28;20056;-56
2023/07/27 00:24:45;;;;;;;4.45;2.25;;;;;;;12.60;95.73;97139.69;5062324;28;20037;-56
2023/07/27 00:27:12;;;;;;;5.57;2.05;;;;;;;12.54;96.25;97144.34;5062640;28;20044;-56
2023/07/27 00:29:39;;;;;;;5.35;2.28;;;;;;;12.60;95.43;97145.13;5063398;28;20543;-56
2023/07/27 00:32:05;;;;;;;4.65;2.00;;;;;;;12.61;95.27;97147.59;5062493;28;20727;-56
2023/07/27 00:34:32;;;;;;;8.63;2.35;;;;;;;12.68;94.70;97141.09;5062258;28;20036;-52
2023/07/27 00:36:58;;;;;;;6.90;2.08;;;;;;;12.78;93.99;97140.28;5062529;28;20043;-53
2023/07/27 00:39:25;;;;;;;4.70;2.35;;;;;;;12.47;96.34;97138.34;5061502;28;20078;-54
2023/07/27 00:41:52;;;;;;;4.55;2.05;;;;;;;12.27;97.65;97137.22;5062075;28;20094;-56
2023/07/27 00:44:18;;;;;;;5.72;2.53;;;;;;;12.02;99.67;97141.47;5062100;28;20052;-54
2023/07/27 00:46:45;;;;;;;5.32;2.53;;;;;;;11.99;99.96;97135.78;5062820;28;20487;-52
2023/07/27 00:49:12;;;;;;;4.57;2.10;;;;;;;12.04;99.64;97133.91;5063030;28;20040;-54
2023/07/27 00:51:43;;;;;;;3.13;2.03;;;;;;;12.02;99.95;97125.19;5067430;28;20044;-55
2023/07/27 00:54:10;;;;;;;4.70;2.30;;;;;;;12.01;99.76;97123.56;5066933;28;20040;-55
2023/07/27 00:56:38;;;;;;;5.05;2.00;;;;;;;12.10;99.59;97126.63;5067422;28;20028;-54
2023/07/27 00:59:06;;;;;;;4.80;2.30;;;;;;;12.08;99.60;97118.75;5067092;28;20051;-56
2023/07/27 01:01:33;;;;;;;5.00;2.40;;;;;;;12.09;99.74;97114.94;5068831;28;20071;-54
2023/07/27 01:04:00;;;;;;;5.25;2.35;;;;;;;12.05;99.99;97111.13;5068220;28;20107;-56
2023/07/27 01:06:27;;;;;;;7.50;2.60;;;;;;;12.03;100.00;97110.56;5067458;28;20571;-55
2023/07/27 01:08:54;;;;;;;5.28;2.63;;;;;;;12.09;99.74;97108.72;5066832;28;20436;-57
2023/07/27 01:11:52;;;;;;;4.22;2.50;;;;;;;12.13;99.22;97106.25;5068467;28;20032;-55
2023/07/27 01:14:30;;;;;;;4.13;1.85;;;;;;;12.03;99.99;97104.31;5056473;28;20040;-55
2023/07/27 01:17:09;;;;;;;5.30;2.30;;;;;;;12.06;99.87;97098.38;5064957;28;20040;-54
2023/07/27 01:19:56;;;;;;;4.60;2.40;;;;;;;12.15;99.00;97090.50;5068413;28;20036;-52
2023/07/27 01:22:31;;;;;;;4.30;2.28;;;;;;;12.26;97.95;97094.06;5065967;28;20036;-54
2023/07/27 01:25:06;;;;;;;4.80;2.35;;;;;;;12.20;98.24;97090.53;5066128;28;20141;-57
2023/07/27 01:27:47;;;;;;;5.05;2.17;;;;;;;12.13;99.00;97087.28;5068047;28;20036;-55
2023/07/27 01:30:44;;;;;;;5.00;2.40;;;;;;;12.01;99.70;97088.28;5068214;28;20044;-56
2023/07/27 01:33:14;;;;;;;6.72;2.40;;;;;;;12.09;99.22;97079.66;5065107;28;20044;-56
2023/07/27 01:36:03;;;;;;;8.80;2.80;;;;;;;12.14;98.46;97086.19;5067414;28;20036;-54
2023/07/27 01:38:33;;;;;;;3.95;2.22;;;;;;;12.03;99.20;97072.56;5064128;28;20148;-53
2023/07/27 01:41:01;;;;;;;4.40;2.38;;;;;;;11.97;99.48;97070.91;5067760;28;20050;-52
2023/07/27 01:43:28;;;;;;;5.85;2.55;;;;;;;11.90;100.00;97071.19;5068215;28;20163;-56
2023/07/27 01:45:56;;;;;;;4.53;2.50;;;;;;;11.92;99.81;97066.31;5066143;28;20037;-52
2023/07/27 01:48:26;;;;;;;5.53;2.22;;;;;;;11.74;100.00;97064.91;5066555;28;20123;-57
2023/07/27 01:50:54;;;;;;;5.45;2.75;;;;;;;11.75;100.00;97063.81;5065797;28;20135;-57
2023/07/27 01:53:22;;;;;;;6.10;2.40;;;;;;;11.81;100.00;97064.66;5067148;28;20048;-56
2023/07/27 01:55:51;;;;;;;4.75;2.50;;;;;;;11.71;100.00;97057.28;5067375;28;20708;-55
2023/07/27 01:58:19;;;;;;;4.88;2.25;;;;;;;11.61;100.00;97054.56;5066578;28;20040;-55
2023/07/27 02:00:47;;;;;;;3.67;2.05;;;;;;;11.68;100.00;97047.81;5064928;28;20055;-55
2023/07/27 02:03:15;;;;;;;5.35;2.72;;;;;;;11.65;100.00;97050.25;5063117;28;20048;-56
2023/07/27 02:05:42;;;;;;;3.90;2.30;;;;;;;11.65;100.00;97051.03;5065592;28;20052;-55
2023/07/27 02:08:08;;;;;;;5.05;2.35;;;;;;;11.62;100.00;97051.59;5063786;28;20495;-55
2023/07/27 02:10:37;;;;;;;4.70;2.60;;;;;;;11.60;100.00;97048.31;5064696;28;20044;-53
2023/07/27 02:13:22;;;;;;;5.90;2.75;;;;;;;11.62;100.00;97043.47;5063621;28;20683;-56
2023/07/27 02:15:56;;;;;;;4.50;2.60;;;;;;;11.61;100.00;97038.31;5062638;28;20147;-54
2023/07/27 02:18:25;;;;;;;4.20;2.63;;;;;;;11.71;100.00;97038.31;5061497;28;20057;-54
2023/07/27 02:20:52;;;;;;;5.97;2.70;;;;;;;11.83;100.00;97035.34;5061384;28;20040;-54
2023/07/27 02:23:19;;;;;;;4.60;2.58;;;;;;;11.91;99.45;97040.25;5061281;28;20032;-54
2023/07/27 02:25:45;;;;;;;3.72;1.65;;;;;;;11.83;100.00;97041.59;5062714;28;20102;-55
2023/07/27 02:28:12;;;;;;;7.40;2.58;;;;;;;11.83;99.92;97030.75;5063210;28;20136;-57
2023/07/27 02:30:39;;;;;;;5.10;2.17;;;;;;;11.84;99.74;97029.66;5061779;28;20047;-54
2023/07/27 02:33:06;;;;;;;6.93;2.50;;;;;;;11.86;99.88;97028.59;5062865;28;20431;-54
2023/07/27 02:35:32;;;;;;;4.05;2.05;;;;;;;11.83;99.91;97022.59;5061709;28;20048;-52
2023/07/27 02:37:59;;;;;;;3.72;2.20;;;;;;;11.87;99.68;97020.16;5061733;28;20563;-52
2023/07/27 02:40:27;;;;;;;4.53;2.53;;;;;;;11.93;99.29;97019.09;5063051;28;20056;-54
2023/07/27 02:42:54;;;;;;;3.63;1.85;;;;;;;11.95;99.38;97013.41;5062172;28;20037;-53
2023/07/27 02:45:22;;;;;;;4.20;2.08;;;;;;;11.95;99.14;97006.06;5062789;28;20488;-52
2023/07/27 02:47:49;;;;;;;7.70;2.17;;;;;;;12.01;98.82;97006.88;5059977;28;20039;-52
2023/07/27 02:50:15;;;;;;;4.13;2.00;;;;;;;12.07;98.20;97005.84;5063212;28;20040;-53
2023/07/27 02:53:05;;;;;;;4.00;2.30;;;;;;;12.10;97.66;97004.50;5062157;28;20063;-54
2023/07/27 02:55:32;;;;;;;3.85;1.85;;;;;;;12.10;97.87;96997.16;5062417;28;20055;-52
2023/07/27 02:58:01;;;;;;;3.58;1.90;;;;;;;12.17;97.42;96998.81;5062127;28;20036;-53
2023/07/27 03:00:31;;;;;;;4.13;2.10;;;;;;;12.12;97.78;97002.31;5060888;28;20056;-52
2023/07/27 03:03:00;;;;;;;3.70;2.13;;;;;;;12.09;97.97;97006.38;5061600;28;20040;-53
2023/07/27 03:05:27;;;;;;;4.78;2.28;;;;;;;12.07;98.22;97005.84;5062770;28;20048;-53
2023/07/27 03:07:54;;;;;;;5.53;2.58;;;;;;;12.18;97.33;97003.97;5062370;28;20044;-54
2023/07/27 03:10:24;;;;;;;5.30;1.97;;;;;;;12.22;96.72;97007.75;5061609;28;20066;-52
2023/07/27 03:12:51;;;;;;;4.25;2.33;;;;;;;12.21;96.71;97010.75;5061177;28;20056;-55
2023/07/27 03:15:17;;;;;;;4.50;1.88;;;;;;;12.25;96.44;97011.81;5058863;28;20094;-54
2023/07/27 03:17:44;;;;;;;4.85;2.20;;;;;;;12.28;95.99;97016.72;5062633;28;20629;-55
2023/07/27 03:20:11;;;;;;;4.57;2.00;;;;;;;12.28;96.26;97015.91;5060487;28;20037;-53
2023/07/27 03:22:37;;;;;;;3.72;2.08;;;;;;;12.26;96.53;97010.72;5061958;28;20037;-53
2023/07/27 03:25:04;;;;;;;5.32;2.83;;;;;;;12.18;97.36;97009.38;5060947;28;20055;-55
2023/07/27 03:27:31;;;;;;;4.57;2.10;;;;;;;12.12;97.62;97005.03;5061984;28;20029;-54
2023/07/27 03:29:57;;;;;;;5.93;2.20;;;;;;;12.12;97.45;96998.81;5063410;28;20037;-52
2023/07/27 03:32:24;;;;;;;3.88;1.98;;;;;;;12.06;97.26;96987.94;5063097;28;20048;-52
2023/07/27 03:34:50;;;;;;;3.10;1.95;;;;;;;12.15;96.59;96993.63;5062658;28;20067;-54
2023/07/27 03:37:17;;;;;;;5.03;2.25;;;;;;;12.16;96.29;96989.03;5063139;28;20044;-51
2023/07/27 03:39:43;;;;;;;5.70;2.22;;;;;;;12.20;95.83;96995.56;5063282;28;20699;-53
2023/07/27 03:42:11;;;;;;;4.10;1.80;;;;;;;12.06;97.19;96985.22;5045171;28;20049;-56
2023/07/27 03:44:38;;;;;;;3.45;1.80;;;;;;;12.07;97.43;96981.44;5062876;28;20539;-54
2023/07/27 03:47:05;;;;;;;3.85;2.17;;;;;;;12.08;96.88;96980.34;5061041;28;20039;-56
2023/07/27 03:49:33;;;;;;;5.15;2.03;;;;;;;12.15;96.35;96976.53;5061498;28;20044;-55
2023/07/27 03:51:59;;;;;;;6.20;2.58;;;;;;;12.22;96.18;96977.91;5062348;28;20032;-51
2023/07/27 03:54:26;;;;;;;3.28;1.80;;;;;;;12.28;95.14;96969.75;5059488;28;20044;-56
2023/07/27 03:56:53;;;;;;;5.32;2.00;;;;;;;12.35;94.46;96960.22;5060960;28;20041;-56
2023/07/27 03:59:19;;;;;;;3.60;1.92;;;;;;;12.32;94.91;96962.69;5061842;28;20127;-56
2023/07/27 04:01:46;;;;;;;3.95;1.98;;;;;;;12.29;95.07;96966.75;5058700;28;20055;-56
2023/07/27 04:04:13;;;;;;;5.00;1.98;;;;;;;12.32;94.60;96968.13;5059197;28;20052;-55
2023/07/27 04:06:41;;;;;;;5.15;1.80;;;;;;;12.39;93.63;96952.38;5058970;28;20064;-55
2023/07/27 04:09:08;;;;;;;3.50;2.00;;;;;;;12.41;93.63;96954.78;5058092;28;20332;-55
2023/07/27 04:11:34;;;;;;;4.82;2.20;;;;;;;12.44;93.07;96955.06;5060020;28;20055;-56
2023/07/27 04:14:01;;;;;;;3.50;1.80;;;;;;;12.44;93.15;96951.53;5059595;28;20045;-57
2023/07/27 04:16:29;;;;;;;3.85;1.75;;;;;;;12.51;92.80;96949.34;5061152;28;20521;-55
2023/07/27 04:18:56;;;;;;;4.00;2.20;;;;;;;12.56;91.63;96951.22;5059400;28;20054;-56
2023/07/27 04:21:22;;;;;;;5.78;1.77;;;;;;;12.58;91.52;96947.16;5059570;28;20112;-55
2023/07/27 04:23:49;;;;;;;3.97;1.98;;;;;;;12.57;91.72;96950.94;5060124;28;20059;-55
2023/07/27 04:26:15;;;;;;;5.03;1.80;;;;;;;12.72;90.66;96957.44;5060354;28;20133;-56
2023/07/27 04:28:42;;;;;;;3.50;1.98;;;;;;;12.67;90.94;96955.56;5061397;28;20048;-55
2023/07/27 04:31:09;;;;;;;3.47;1.77;;;;;;;12.74;90.52;96955.25;5058563;28;20044;-56
2023/07/27 04:33:35;;;;;;;3.92;2.00;;;;;;;12.66;91.37;96956.66;5059588;28;20526;-55
2023/07/27 04:36:02;;;;;;;2.83;1.50;;;;;;;12.72;90.50;96952.03;5059629;28;20845;-56
2023/07/27 04:38:29;;;;;;;4.68;1.83;;;;;;;12.70;90.61;96951.47;5059038;28;20072;-55
2023/07/27 04:40:55;;;;;;;4.28;1.95;;;;;;;12.70;90.72;96957.72;5061766;28;20044;-55
2023/07/27 04:43:22;;;;;;;5.07;1.88;;;;;;;12.79;89.88;96954.44;5060751;28;20127;-51
2023/07/27 04:45:48;;;;;;;3.67;1.88;;;;;;;12.93;88.88;96951.97;5061954;28;20040;-56
2023/07/27 04:48:15;;;;;;;4.80;1.80;;;;;;;12.86;89.73;96955.75;5060841;28;20048;-56
2023/07/27 04:50:41;;;;;;;3.20;1.70;;;;;;;12.93;89.16;96954.66;5062075;28;20041;-57
2023/07/27 04:53:08;;;;;;;4.50;2.00;;;;;;;12.94;89.10;96959.00;5061639;28;20115;-54
2023/07/27 04:55:34;;;;;;;11.52;3.03;;;;;;;12.87;89.72;96962.03;5057741;28;20049;-53
2023/07/27 04:58:01;;;;;;;5.88;1.80;;;;;;;12.90;89.75;96952.50;5061841;28;20044;-56
2023/07/27 05:00:28;;;;;;;4.90;1.75;;;;;;;12.96;89.19;96957.63;5060821;28;20136;-54
2023/07/27 05:02:57;;;;;;;5.78;1.83;;;;;;;12.93;89.25;96965.53;5059883;28;20047;-56
2023/07/27 05:05:23;;;;;;;4.43;2.00;;;;;;;12.97;89.54;96955.75;5059391;28;20119;-56
2023/07/27 05:07:50;;;;;;;3.42;1.70;;;;;;;13.00;89.27;96956.00;5060890;28;20033;-55
2023/07/27 05:10:16;;;;;;;6.15;2.30;;;;;;;13.07;89.12;96952.97;5058235;28;20115;-56
2023/07/27 05:12:43;;;;;;;3.30;1.73;;;;;;;13.10;88.83;96951.59;5060533;28;20052;-54
2023/07/27 05:15:09;;;;;;;5.57;1.85;;;;;;;13.17;89.02;96954.00;5059186;28;20068;-57
2023/07/27 05:17:36;;;;;;;3.35;1.83;;;;;;;13.15;88.39;96959.72;5059995;28;20059;-56
2023/07/27 05:20:03;;;;;;;3.53;1.70;;;;;;;13.21;88.18;96953.19;5058718;28;20047;-56
2023/07/27 05:22:29;;;;;;;3.92;1.80;;;;;;;13.22;88.61;96956.69;5060196;28;20044;-57
2023/07/27 05:24:56;;;;;;;4.00;1.70;;;;;;;13.27;87.85;96945.81;5061077;28;20044;-57
2023/07/27 05:27:23;;;;;;;4.15;1.98;;;;;;;13.30;88.62;96939.81;5060334;28;20063;-56
2023/07/27 05:29:49;;;;;;;4.35;1.92;;;;;;;13.40;87.74;96949.81;5061942;28;20036;-56
2023/07/27 05:32:16;;;;;;;3.92;1.90;;;;;;;13.38;87.79;96939.22;5061632;28;20045;-54
2023/07/27 05:34:42;;;;;;;4.18;1.83;;;;;;;13.39;87.60;96940.03;5061375;28;20052;-56
2023/07/27 05:37:09;;;;;;;4.32;1.98;;;;;;;13.47;87.74;96946.78;5064420;28;20040;-56
2023/07/27 05:39:37;;;;;;;4.05;2.00;;;;;;;13.49;87.03;96944.63;5064751;28;20036;-53
2023/07/27 05:42:04;;;;;;;4.47;2.20;;;;;;;13.60;87.12;96938.03;5064915;28;20519;-57
2023/07/27 05:44:30;;;;;;;4.32;1.50;;;;;;;13.57;87.72;96946.75;5065085;28;20833;-56
2023/07/27 05:46:57;;;;;;;4.03;2.15;;;;;;;13.58;86.41;96950.28;5063908;28;20377;-56
2023/07/27 05:49:26;;;;;;;4.13;1.77;;;;;;;13.59;86.99;96944.56;5064022;28;20106;-52
2023/07/27 05:51:52;;;;;;;3.92;2.08;;;;;;;13.63;86.45;96940.19;5065148;28;20044;-53
2023/07/27 05:54:19;;;;;;;4.18;2.15;;;;;;;13.71;86.30;96940.69;5064389;28;20133;-55
2023/07/27 05:56:45;;;;;;;4.03;1.85;;;;;;;13.76;86.65;96943.38;5064325;28;20064;-56
2023/07/27 05:59:12;;;;;;;3.55;1.75;;;;;;;13.81;86.42;96942.53;5062417;28;20079;-55
2023/07/27 06:01:39;;;;;;;4.78;1.75;;;;;;;13.78;86.46;96943.88;5062281;28;20056;-56
2023/07/27 06:04:06;;;;;;;4.38;1.90;;;;;;;13.85;85.73;96955.25;5061452;28;20045;-56
2023/07/27 06:06:34;;;;;;;3.63;1.92;;;;;;;13.94;85.66;96954.66;5061572;28;20136;-55
2023/07/27 06:09:02;;;;;;;3.45;1.95;;;;;;;13.97;85.64;96949.44;5062708;28;20036;-56
2023/07/27 06:11:29;;;;;;;3.03;1.50;;;;;;;14.03;85.23;96951.03;5062886;28;20136;-56
2023/07/27 06:13:56;;;;;;;4.28;2.30;;;;;;;14.11;84.95;96952.34;5062620;28;20041;-56
2023/07/27 06:16:24;;;;;;;5.05;1.92;;;;;;;14.14;85.40;96954.50;5062105;28;20041;-57
2023/07/27 06:18:51;;;;;;;3.25;1.67;;;;;;;14.27;85.38;96954.94;5062473;28;20124;-56
2023/07/27 06:21:17;;;;;;;5.53;1.73;;;;;;;14.38;86.14;96955.66;5063087;28;20037;-57
2023/07/27 06:23:44;;;;;;;5.78;2.10;;;;;;;14.36;87.66;96955.94;5060299;28;20044;-57
2023/07/27 06:26:10;;;;;;;3.42;1.83;;;;;;;14.34;88.11;96947.22;5061920;28;20123;-56
2023/07/27 06:28:37;;;;;;;4.22;2.00;;;;;;;14.38;87.91;96953.72;5062904;28;20052;-55
2023/07/27 06:31:04;;;;;;;3.72;1.60;;;;;;;14.38;87.62;96947.47;5062794;28;20045;-55
2023/07/27 06:33:30;;;;;;;3.50;1.88;;;;;;;14.46;89.88;96951.47;5062840;28;20694;-56
2023/07/27 06:35:57;;;;;;;5.97;2.33;;;;;;;14.49;89.97;96940.00;5062177;28;20396;-52
2023/07/27 06:38:23;;;;;;;4.50;2.05;;;;;;;14.49;87.82;96940.00;5061851;28;20633;-57
2023/07/27 06:40:50;;;;;;;4.20;2.38;;;;;;;14.42;88.54;96941.16;5062729;28;20676;-55
2023/07/27 06:43:17;;;;;;;3.63;1.98;;;;;;;14.34;89.30;96943.69;5061591;28;20123;-54
2023/07/27 06:45:43;;;;;;;4.05;1.90;;;;;;;14.34;90.41;96943.69;5063030;28;20060;-56
2023/07/27 06:48:10;;;;;;;3.47;2.00;;;;;;;14.27;90.64;96942.09;5063889;28;20557;-56
2023/07/27 06:50:37;;;;;;;3.15;1.80;;;;;;;14.22;89.33;96939.44;5063283;28;20326;-57
2023/07/27 06:53:03;;;;;;;5.32;2.05;;;;;;;14.19;90.28;96940.00;5063731;28;20055;-56
2023/07/27 06:55:30;;;;;;;5.25;2.05;;;;;;;14.26;90.85;96931.53;5064193;28;20052;-58
2023/07/27 06:57:57;;;;;;;3.90;1.80;;;;;;;14.34;89.89;96928.16;5026247;28;20033;-58
2023/07/27 07:00:24;;;;;;;2.85;1.40;;;;;;;14.34;89.98;96927.38;5058057;28;20101;-57
2023/07/27 07:02:50;;;;;;;6.75;3.30;;;;;;;14.38;90.28;96922.97;5058888;28;20048;-57
2023/07/27 07:05:17;;;;;;;4.20;2.13;;;;;;;14.33;90.82;96934.72;5061270;28;20074;-58
2023/07/27 07:07:44;;;;;;;4.85;2.08;;;;;;;14.45;91.05;96931.63;5061627;28;20041;-58
2023/07/27 07:10:11;;;;;;;4.63;2.03;;;;;;;14.51;91.03;96927.72;5062879;28;20048;-57
2023/07/27 07:12:38;;;;;;;7.43;1.98;;;;;;;14.66;91.09;96929.47;5061921;28;20651;-57
2023/07/27 07:15:06;;;;;;;6.07;2.38;;;;;;;14.72;90.77;96923.97;5063939;28;20716;-56
2023/07/27 07:17:32;;;;;;;5.70;2.22;;;;;;;14.72;90.94;96916.59;5062153;28;20147;-57
2023/07/27 07:19:59;;;;;;;3.90;1.80;;;;;;;14.70;92.55;96911.44;5062954;28;20046;-55
2023/07/27 07:22:26;;;;;;;4.60;1.85;;;;;;;14.72;92.63;96907.59;5061765;28;20052;-55
2023/07/27 07:24:52;;;;;;;5.88;2.58;;;;;;;14.50;93.74;96906.22;5062724;28;20041;-58
2023/07/27 07:27:19;;;;;;;3.65;2.03;;;;;;;14.56;94.09;96903.16;5040582;28;20047;-57
2023/07/27 07:29:45;;;;;;;5.05;1.90;;;;;;;14.74;93.46;96905.41;5052758;28;20094;-56
2023/07/27 07:32:12;;;;;;;4.25;1.75;;;;;;;14.75;93.13;96896.13;5058965;28;20044;-59
2023/07/27 07:34:38;;;;;;;5.32;2.05;;;;;;;14.70;95.26;96897.00;5062967;28;20037;-59
2023/07/27 07:37:05;;;;;;;4.28;2.20;;;;;;;14.81;92.72;96897.72;5062576;28;20051;-56
2023/07/27 07:39:31;;;;;;;5.43;1.95;;;;;;;14.83;93.46;96901.78;5061422;28;20044;-56
2023/07/27 07:42:00;;;;;;;4.03;2.45;;;;;;;14.78;93.70;96898.31;5056925;28;20052;-58
2023/07/27 07:44:26;;;;;;;5.90;2.28;;;;;;;14.87;92.63;96902.00;5059928;28;20041;-58
2023/07/27 07:46:53;;;;;;;5.50;2.30;;;;;;;14.81;93.34;96900.44;5063014;28;20048;-56
2023/07/27 07:49:19;;;;;;;4.80;1.83;;;;;;;14.78;93.90;96895.59;5060835;28;20091;-59
2023/07/27 07:51:46;;;;;;;4.57;2.15;;;;;;;14.96;93.73;96888.53;5059051;28;20123;-57
2023/07/27 07:54:12;;;;;;;4.35;2.05;;;;;;;15.13;92.02;96890.78;5060228;28;20041;-57
2023/07/27 07:56:39;;;;;;;3.97;1.80;;;;;;;15.27;91.85;96882.69;5059307;28;20044;-56
2023/07/27 07:59:06;;;;;;;4.80;2.13;;;;;;;15.23;90.73;96883.56;5060079;28;20133;-58
2023/07/27 08:01:32;;;;;;;4.00;2.00;;;;;;;15.32;89.12;96884.50;5061197;28;20048;-57
2023/07/27 08:03:59;;;;;;;4.60;2.15;;;;;;;15.31;88.87;96883.72;5059700;28;20049;-59
2023/07/27 08:06:26;;;;;;;4.68;1.80;;;;;;;15.40;88.84;96883.06;5060758;28;20050;-58
2023/07/27 08:08:52;;;;;;;3.90;1.65;;;;;;;15.52;86.89;96877.94;5064018;28;20061;-58
2023/07/27 08:11:19;;;;;;;6.43;1.85;;;;;;;15.52;87.39;96872.47;5062649;28;20043;-60
2023/07/27 08:13:45;;;;;;;3.80;1.95;;;;;;;15.66;86.18;96860.81;5062854;28;20098;-57
2023/07/27 08:16:12;;;;;;;4.68;1.80;;;;;;;15.75;84.52;96861.75;5058486;28;20059;-57
2023/07/27 08:18:38;;;;;;;4.05;1.50;;;;;;;15.79;85.00;96859.22;5060451;28;20123;-57
2023/07/27 08:21:06;;;;;;;3.05;1.73;;;;;;;15.74;83.59;96860.16;5058031;28;20052;-56
2023/07/27 08:23:33;;;;;;;3.40;1.38;;;;;;;15.68;83.71;96853.97;5060528;28;20060;-55
2023/07/27 08:26:01;;;;;;;4.15;1.80;;;;;;;15.78;83.61;96853.00;5060157;28;20044;-58
2023/07/27 08:28:28;;;;;;;3.75;1.77;;;;;;;15.65;83.83;96864.63;5060202;28;20082;-56
2023/07/27 08:30:54;;;;;;;4.28;1.77;;;;;;;15.75;83.40;96856.31;5061028;28;20052;-57
2023/07/27 08:33:21;;;;;;;3.90;1.75;;;;;;;15.76;83.52;96857.09;5060738;28;20127;-58
2023/07/27 08:35:48;;;;;;;3.40;1.63;;;;;;;15.87;83.12;96842.16;5060655;28;20503;-58
2023/07/27 08:38:14;;;;;;;6.22;2.78;;;;;;;15.87;82.56;96844.91;5062111;28;20075;-57
2023/07/27 08:40:52;;;;;;;3.95;1.60;;;;;;;15.97;82.17;96828.38;5061846;28;20062;-56
2023/07/27 08:43:18;;;;;;;3.33;1.70;;;;;;;16.08;82.11;96820.00;5060368;28;20059;-59
2023/07/27 08:45:45;;;;;;;2.97;1.67;;;;;;;16.24;81.74;96815.88;5062243;28;20052;-57
2023/07/27 08:48:14;;;;;;;5.35;1.70;;;;;;;16.11;81.40;96808.47;5061493;28;20427;-58
2023/07/27 08:50:43;;;;;;;3.30;1.63;;;;;;;16.15;80.44;96801.31;5055148;28;20051;-58
2023/07/27 08:53:10;;;;;;;3.92;1.70;;;;;;;16.17;80.42;96800.97;5022833;28;20047;-58
2023/07/27 08:55:40;;;;;;;3.80;2.10;;;;;;;16.20;80.61;96800.38;5029246;28;21724;-57
2023/07/27 08:58:08;;;;;;;4.07;1.48;;;;;;;16.14;79.39;96805.13;5041649;28;20415;-58
2023/07/27 09:00:35;;;;;;;5.53;2.17;;;;;;;16.10;80.49;96806.84;5061951;28;20051;-58
2023/07/27 09:03:02;;;;;;;5.28;1.60;;;;;;;16.19;79.77;96815.16;5060827;28;20036;-57
2023/07/27 09:05:44;;;;;;;4.32;1.60;;;;;;;16.12;79.71;96813.66;5061361;28;20048;-58
2023/07/27 09:08:14;;;;;;;4.25;1.88;;;;;;;16.09;80.30;96816.97;5061805;28;20980;-58
2023/07/27 09:10:42;;;;;;;4.55;1.90;;;;;;;16.08;80.61;96818.09;5064027;28;20048;-57
2023/07/27 09:13:10;;;;;;;4.30;2.08;;;;;;;16.20;81.26;96822.22;5065131;28;20538;-57
2023/07/27 09:15:42;;;;;;;4.30;1.85;;;;;;;16.16;82.90;96813.00;5065456;28;20165;-57
2023/07/27 09:18:11;;;;;;;4.10;1.80;;;;;;;16.07;84.40;96826.56;5064518;28;20029;-59
2023/07/27 09:20:39;;;;;;;3.92;2.13;;;;;;;16.04;84.28;96827.16;5066169;28;20047;-56
2023/07/27 09:23:07;;;;;;;2.90;1.65;;;;;;;16.02;86.81;96834.84;5065412;28;20033;-56
2023/07/27 09:25:34;;;;;;;4.25;1.95;;;;;;;16.02;88.11;96830.19;5065128;28;20392;-59
2023/07/27 09:28:00;;;;;;;6.07;2.50;;;;;;;16.03;87.96;96831.03;5064750;28;20743;-59
2023/07/27 09:30:27;;;;;;;5.00;1.73;;;;;;;16.02;86.45;96835.66;5065524;28;20169;-57
2023/07/27 09:32:53;;;;;;;4.10;1.98;;;;;;;16.11;83.43;96838.53;5062455;28;20063;-57
2023/07/27 09:35:21;;;;;;;3.97;1.60;;;;;;;16.16;83.16;96843.06;5061190;28;20040;-59
2023/07/27 09:37:49;;;;;;;4.53;1.83;;;;;;;16.23;81.57;96841.56;5064226;28;20071;-58
2023/07/27 09:40:24;;;;;;;3.70;1.60;;;;;;;16.28;82.99;96840.66;5063162;28;20055;-57
2023/07/27 09:42:51;;;;;;;4.03;1.80;;;;;;;16.27;82.62;96847.22;5064189;28;20123;-56
2023/07/27 09:45:19;;;;;;;4.40;1.73;;;;;;;16.27;83.88;96843.69;5063950;28;20062;-57
2023/07/27 09:47:46;;;;;;;4.18;1.90;;;;;;;16.31;82.64;96831.84;5063447;28;20033;-58
2023/07/27 09:50:14;;;;;;;5.05;2.05;;;;;;;16.28;81.42;96827.00;5059218;28;20040;-57
2023/07/27 09:52:41;;;;;;;3.55;1.55;;;;;;;16.25;80.97;96814.75;5062925;28;20419;-57
2023/07/27 09:55:08;;;;;;;5.00;2.00;;;;;;;16.29;81.54;96817.66;5062596;28;20040;-58
2023/07/27 09:57:35;;;;;;;3.88;1.65;;;;;;;16.49;80.36;96812.94;5061832;28;20051;-57
2023/07/27 10:00:06;;;;;;;4.28;1.60;;;;;;;16.59;77.92;96809.19;5061890;28;20051;-57
2023/07/27 10:02:38;;;;;;;4.45;1.58;;;;;;;16.93;76.52;96809.81;5061430;28;20109;-54
2023/07/27 10:05:05;;;;;;;4.43;1.75;;;;;;;16.95;76.51;96804.88;5066129;28;20546;-57
2023/07/27 10:07:34;;;;;;;5.63;1.85;;;;;;;17.02;76.01;96803.31;5061122;28;20056;-57
2023/07/27 10:10:34;;;;;;;3.75;1.58;;;;;;;17.33;74.03;96795.53;5062786;28;20043;-57
2023/07/27 10:13:07;;;;;;;6.28;1.60;;;;;;;17.58;73.28;96793.31;5062643;28;20040;-55
2023/07/27 10:15:41;;;;;;;8.98;2.28;;;;;;;17.72;73.82;96795.97;5063123;28;20105;-56
2023/07/27 10:18:14;;;;;;;5.95;1.77;;;;;;;17.83;72.26;96793.78;5061693;28;20102;-56
2023/07/27 10:20:41;;;;;;;4.47;1.63;;;;;;;18.04;72.14;96792.13;5064264;28;20522;-57
2023/07/27 10:23:19;;;;;;;3.70;2.03;;;;;;;18.16;71.32;96796.19;5061576;28;20052;-58
2023/07/27 10:25:55;;;;;;;3.53;1.73;;;;;;;18.41;70.56;96796.63;5062120;28;20049;-58
2023/07/27 10:28:40;;;;;;;4.85;1.70;;;;;;;18.46;70.65;96788.25;5061508;28;20044;-57
2023/07/27 10:31:27;;;;;;;4.15;1.80;;;;;;;18.62;69.31;96779.59;5062151;28;20154;-58
2023/07/27 10:33:55;;;;;;;5.57;1.85;;;;;;;18.88;69.37;96770.59;5060604;28;20787;-57
2023/07/27 10:36:57;;;;;;;4.72;1.70;;;;;;;18.75;68.79;96775.09;5060613;28;20514;-58
2023/07/27 10:39:37;;;;;;;4.32;1.60;;;;;;;18.82;68.34;96764.44;5061668;28;20649;-57
2023/07/27 10:42:03;;;;;;;3.30;1.75;;;;;;;18.84;67.59;96763.00;5064272;28;20048;-58
2023/07/27 10:44:46;;;;;;;2.83;1.30;;;;;;;19.08;66.96;96761.75;5060541;28;20049;-58
2023/07/27 10:47:13;;;;;;;;;;;;;;;19.22;66.13;96755.28;5064367;28;20056;-57
2023/07/27 10:49:42;;;;;;;4.97;1.83;;;;;;;19.10;66.15;96750.47;5062395;28;20015;-57
2023/07/27 10:52:12;;;;;;;3.03;1.40;;;;;;;19.18;65.12;96746.09;5062319;28;20051;-58
2023/07/27 10:54:40;;;;;;;6.88;1.92;;;;;;;19.34;64.81;96749.94;5062044;28;20037;-57
2023/07/27 10:57:09;;;;;;;3.00;1.40;;;;;;;19.38;64.49;96743.81;5060846;28;20115;-56
2023/07/27 10:59:38;;;;;;;4.18;1.85;;;;;;;19.32;63.67;96741.22;5060965;28;20127;-56
2023/07/27 11:02:26;;;;;;;4.07;1.60;;;;;;;19.48;64.77;96743.47;5061234;28;20048;-56
2023/07/27 11:04:55;;;;;;;4.57;1.90;;;;;;;19.62;64.05;96740.53;5060665;28;20045;-58
2023/07/27 11:07:29;;;;;;;5.93;1.55;;;;;;;19.85;63.02;96743.03;5063472;28;20037;-56
2023/07/27 11:09:56;;;;;;;3.75;1.30;;;;;;;20.01;63.39;96744.16;5062166;28;20063;-57
2023/07/27 11:12:23;;;;;;;5.25;1.65;;;;;;;20.04;61.75;96739.16;5063542;28;20033;-57
2023/07/27 11:14:51;;;;;;;5.45;1.67;;;;;;;19.84;62.58;96745.00;5062259;28;20048;-57
2023/07/27 11:17:19;;;;;;;3.42;1.38;;;;;;;19.49;63.66;96745.06;5063758;28;20044;-57
2023/07/27 11:19:47;;;;;;;5.65;1.77;;;;;;;19.55;64.16;96740.22;5063320;28;20274;-55
2023/07/27 11:22:15;;;;;;;3.17;1.30;;;;;;;19.40;64.02;96734.13;5063039;28;20055;-58
2023/07/27 11:24:42;;;;;;;3.30;1.10;;;;;;;19.34;65.32;96733.50;5062915;28;20051;-57
2023/07/27 11:27:10;;;;;;;4.50;1.52;;;;;;;19.17;65.75;96725.28;5063231;28;20040;-57
2023/07/27 11:29:39;;;;;;;3.35;1.50;;;;;;;19.41;65.09;96729.44;5062440;28;20032;-58
2023/07/27 11:32:06;;;;;;;6.72;1.50;;;;;;;19.43;66.20;96727.19;5063135;28;20044;-56
2023/07/27 11:34:35;;;;;;;4.85;1.40;;;;;;;19.36;66.62;96727.69;5062464;28;20072;-58
2023/07/27 11:37:01;;;;;;;3.47;1.50;;;;;;;19.44;66.26;96718.63;5065838;28;20207;-58
2023/07/27 11:39:29;;;;;;;4.72;1.52;;;;;;;19.52;66.01;96721.66;5063520;28;20051;-58